Lone Hickory, North Carolina
Current Conditions -  °F | °C
As of 7:54 PM on Wednesday 26 Nov 2014 (Local Time) from KINT Reporting Station
Clear Clear  
Wind Chill: 40°   Ceiling: Unl
Heat Index: 40°   Visibility: 10mi
Dew Point: 38°   Wind: 0mph
Humidity: 93%   Direction: NA
Pressure: 30.03"   Gusts: NA
Location:  36.1267°N, 80.6582°W
Report Text: KINT 270054Z 00000KT 10SM CLR 04/03 A3003 RMK AO2 SLP172 T00440033
Loading
Personal Weather Stations






























Interactive Weather Map New forecast layout! Learn more

10-Day Weather Forecast

Advertisements
Track Severe Weather on mobile